Time;durP1;ratioP1;P1;durP2;ratioP2;P2;SDS_P1;SDS_P2;PMS_P1;PMS_P2;Temp;Humidity;BMP_temperature;BMP_pressure;BME280_temperature;BME280_humidity;BME280_pressure;Samples;Min_cycle;Max_cycle;Signal;HPM_P1;HPM_P2
2022/04/03 00:01:42;;;;;;;7.60;3.97;;;;;;;-1.85;87.03;102352.72;5050940;28;20024;-68
2022/04/03 00:04:08;;;;;;;8.93;4.13;;;;;;;-1.82;87.24;102355.41;5051945;28;20037;-69
2022/04/03 00:06:34;;;;;;;9.52;4.40;;;;;;;-1.79;87.21;102345.13;5034142;28;20027;-69
2022/04/03 00:09:01;;;;;;;4.80;3.45;;;;;;;-1.74;87.31;102352.16;5052259;28;20031;-69
2022/04/03 00:11:28;;;;;;;5.78;3.95;;;;;;;-1.70;87.55;102348.84;5033986;28;20098;-69
2022/04/03 00:13:54;;;;;;;6.93;4.28;;;;;;;-1.65;88.11;102357.63;5050857;28;20058;-69
2022/04/03 00:16:19;;;;;;;5.82;3.53;;;;;;;-1.60;87.88;102355.16;5032500;28;20800;-69
2022/04/03 00:18:45;;;;;;;5.60;4.10;;;;;;;-1.57;88.09;102350.06;5034296;28;20097;-69
2022/04/03 00:21:13;;;;;;;7.65;4.30;;;;;;;-1.54;88.36;102351.03;5051565;28;20074;-69
2022/04/03 00:23:39;;;;;;;7.15;3.85;;;;;;;-1.50;88.39;102346.81;5034102;28;20035;-69
2022/04/03 00:26:05;;;;;;;4.85;3.90;;;;;;;-1.46;88.31;102348.69;5051110;28;20036;-69
2022/04/03 00:28:30;;;;;;;5.05;3.58;;;;;;;-1.42;88.62;102352.25;5037212;28;20119;-68
2022/04/03 00:30:57;;;;;;;4.80;3.92;;;;;;;-1.36;88.78;102349.81;5050099;28;20109;-68
2022/04/03 00:33:22;;;;;;;6.18;3.42;;;;;;;-1.32;89.09;102346.44;5051882;28;20128;-68
2022/04/03 00:35:50;;;;;;;5.35;3.67;;;;;;;-1.27;89.11;102350.06;5050722;28;20641;-68
2022/04/03 00:38:16;;;;;;;5.03;3.78;;;;;;;-1.22;89.05;102345.00;5050879;28;20028;-68
2022/04/03 00:40:46;;;;;;;6.28;3.80;;;;;;;-1.16;89.27;102346.88;5029198;28;20036;-68
2022/04/03 00:43:12;;;;;;;6.10;3.50;;;;;;;-1.12;89.37;102348.72;5032831;28;20751;-68
2022/04/03 00:45:48;;;;;;;6.53;3.17;;;;;;;-1.06;89.53;102342.81;5049394;28;20106;-68
2022/04/03 00:48:14;;;;;;;5.40;3.55;;;;;;;-1.04;89.52;102342.00;5051579;28;20117;-68
2022/04/03 00:50:40;;;;;;;4.72;3.20;;;;;;;-0.99;89.75;102344.72;5050432;28;20583;-68
2022/04/03 00:53:05;;;;;;;6.63;3.30;;;;;;;-0.96;89.86;102340.50;5051389;28;20403;-68
2022/04/03 00:55:31;;;;;;;8.38;3.33;;;;;;;-0.92;89.81;102341.47;5050824;28;20036;-68
2022/04/03 00:57:57;;;;;;;4.88;2.90;;;;;;;-0.89;89.82;102338.94;5050428;28;20036;-68
2022/04/03 01:00:23;;;;;;;4.28;3.20;;;;;;;-0.86;89.81;102335.56;5033593;28;20024;-69
2022/04/03 01:02:49;;;;;;;3.22;2.78;;;;;;;-0.82;89.92;102329.56;5033978;28;20050;-68
2022/04/03 01:05:15;;;;;;;8.32;3.17;;;;;;;-0.79;89.89;102331.38;5035376;28;20036;-69
2022/04/03 01:07:41;;;;;;;6.28;3.00;;;;;;;-0.76;89.73;102324.53;5051998;28;20041;-69
2022/04/03 01:10:07;;;;;;;5.43;3.13;;;;;;;-0.73;89.84;102328.94;5051450;28;20391;-68
2022/04/03 01:12:32;;;;;;;5.85;3.03;;;;;;;-0.71;89.88;102325.53;5049974;28;20067;-69
2022/04/03 01:14:58;;;;;;;6.35;3.20;;;;;;;-0.69;90.26;102318.63;5032491;28;20176;-69
2022/04/03 01:17:23;;;;;;;4.47;2.63;;;;;;;-0.65;90.19;102326.53;5018227;28;20115;-68
2022/04/03 01:19:49;;;;;;;4.88;3.40;;;;;;;-0.62;90.12;102322.28;5048734;28;20059;-68
2022/04/03 01:22:14;;;;;;;6.68;3.65;;;;;;;-0.58;89.98;102325.84;5049527;28;20044;-68
2022/04/03 01:24:43;;;;;;;4.72;2.55;;;;;;;-0.56;89.87;102335.44;5051294;28;20029;-69
2022/04/03 01:27:10;;;;;;;5.65;3.20;;;;;;;-0.52;90.86;102338.13;5050308;28;20020;-69
2022/04/03 01:29:35;;;;;;;4.90;3.15;;;;;;;-0.51;90.62;102345.06;5050496;28;20381;-69
2022/04/03 01:32:01;;;;;;;4.05;2.78;;;;;;;-0.48;90.75;102334.75;5050113;28;20040;-69
2022/04/03 01:34:26;;;;;;;5.55;2.72;;;;;;;-0.46;90.36;102336.56;5050522;28;21614;-68
2022/04/03 01:36:52;;;;;;;4.53;2.63;;;;;;;-0.42;90.26;102343.56;5049955;28;20426;-69
2022/04/03 01:39:18;;;;;;;6.22;3.05;;;;;;;-0.38;90.34;102338.47;5050977;28;20068;-69
2022/04/03 01:41:44;;;;;;;6.65;3.25;;;;;;;-0.36;90.34;102336.78;5051231;28;20091;-68
2022/04/03 01:44:11;;;;;;;4.90;2.90;;;;;;;-0.32;90.88;102326.47;5050301;28;20048;-68
2022/04/03 01:46:37;;;;;;;5.15;3.30;;;;;;;-0.31;91.08;102325.66;5046912;28;20446;-68
2022/04/03 01:49:04;;;;;;;3.90;2.70;;;;;;;-0.28;91.09;102325.72;5050275;28;20043;-68
2022/04/03 01:51:30;;;;;;;3.78;2.90;;;;;;;-0.26;91.14;102317.06;5033490;28;20181;-68
2022/04/03 01:53:56;;;;;;;8.85;3.60;;;;;;;-0.25;90.82;102319.69;5035823;28;20082;-68
2022/04/03 01:56:21;;;;;;;3.50;2.70;;;;;;;-0.25;91.08;102317.09;5051600;28;20028;-68
2022/04/03 01:58:47;;;;;;;4.10;2.95;;;;;;;-0.24;90.59;102316.25;5052206;28;20137;-68
2022/04/03 02:01:12;;;;;;;3.85;3.08;;;;;;;-0.22;90.89;102311.94;5036777;28;20130;-68
2022/04/03 02:03:38;;;;;;;4.82;3.33;;;;;;;-0.21;90.89;102312.84;5051714;28;20063;-68
2022/04/03 02:06:03;;;;;;;5.30;3.60;;;;;;;-0.19;90.80;102319.84;5017693;28;20129;-68
2022/04/03 02:08:29;;;;;;;7.85;3.15;;;;;;;-0.17;90.84;102307.72;5033070;28;20583;-68
2022/04/03 02:10:55;;;;;;;4.40;2.97;;;;;;;-0.15;91.01;102308.63;5054214;28;20139;-68
2022/04/03 02:13:20;;;;;;;3.45;2.70;;;;;;;-0.13;91.15;102303.47;5051397;28;20048;-68
2022/04/03 02:15:46;;;;;;;6.70;3.10;;;;;;;-0.11;91.01;102303.50;5051726;28;20040;-69
2022/04/03 02:18:12;;;;;;;4.47;2.80;;;;;;;-0.11;91.26;102301.78;5033745;28;20052;-69
2022/04/03 02:20:38;;;;;;;3.53;2.85;;;;;;;-0.11;90.97;102287.88;5033573;28;20075;-68
2022/04/03 02:23:05;;;;;;;4.93;2.88;;;;;;;-0.12;90.67;102284.41;5033526;28;20033;-69
2022/04/03 02:25:31;;;;;;;4.55;2.90;;;;;;;-0.11;91.08;102295.69;5035193;28;20580;-69
2022/04/03 02:27:59;;;;;;;5.57;3.15;;;;;;;-0.15;90.97;102295.63;5052025;28;20032;-68
2022/04/03 02:30:25;;;;;;;4.65;2.78;;;;;;;-0.16;90.62;102299.06;5034688;28;20062;-68
2022/04/03 02:32:51;;;;;;;3.53;2.85;;;;;;;-0.21;90.64;102286.81;5050732;28;20037;-69
2022/04/03 02:35:17;;;;;;;5.45;2.95;;;;;;;-0.25;90.34;102287.56;5050865;28;20063;-69
2022/04/03 02:37:43;;;;;;;4.10;2.90;;;;;;;-0.31;90.49;102288.31;5052084;28;20619;-69
2022/04/03 02:40:12;;;;;;;3.95;2.63;;;;;;;-0.36;90.16;102282.13;5051458;28;20065;-69
2022/04/03 02:42:38;;;;;;;3.45;2.58;;;;;;;-0.41;90.42;102287.22;5033090;28;20032;-69
2022/04/03 02:45:05;;;;;;;4.97;2.65;;;;;;;-0.48;90.14;102280.97;5035839;28;20036;-69
2022/04/03 02:47:32;;;;;;;5.00;2.97;;;;;;;-0.52;90.32;102279.16;5034463;28;20033;-69
2022/04/03 02:49:57;;;;;;;7.15;3.20;;;;;;;-0.58;90.60;102279.91;5032597;28;20115;-68
2022/04/03 02:52:23;;;;;;;4.63;2.92;;;;;;;-0.62;90.07;102279.78;5051040;28;20494;-68
2022/04/03 02:54:48;;;;;;;4.03;2.83;;;;;;;-0.66;90.86;102281.41;5050353;28;20471;-69
2022/04/03 02:57:15;;;;;;;5.80;2.78;;;;;;;-0.72;90.36;102279.56;5050084;28;20463;-68
2022/04/03 02:59:41;;;;;;;5.22;2.92;;;;;;;-0.78;90.31;102275.91;5050635;28;20039;-69
2022/04/03 03:02:07;;;;;;;5.57;3.03;;;;;;;-0.84;90.34;102282.75;5049844;28;20036;-68
2022/04/03 03:04:35;;;;;;;4.45;2.90;;;;;;;-0.90;90.49;102277.38;5050617;28;21441;-68
2022/04/03 03:07:01;;;;;;;4.63;2.92;;;;;;;-0.94;90.34;102270.31;5032349;28;20040;-68
2022/04/03 03:09:27;;;;;;;4.18;2.85;;;;;;;-0.98;90.41;102274.56;5032512;28;20745;-68
2022/04/03 03:11:52;;;;;;;4.97;2.95;;;;;;;-1.02;90.63;102264.94;5032836;28;20036;-68
2022/04/03 03:14:18;;;;;;;5.90;2.90;;;;;;;-1.06;90.78;102264.81;5033240;28;20041;-68
2022/04/03 03:16:44;;;;;;;4.45;2.65;;;;;;;-1.11;90.27;102276.00;5050811;28;20032;-68
2022/04/03 03:19:09;;;;;;;4.95;2.60;;;;;;;-1.14;90.55;102267.22;5033107;28;20037;-68
2022/04/03 03:21:36;;;;;;;7.90;2.80;;;;;;;-1.18;90.40;102270.56;5036462;28;20334;-68
2022/04/03 03:24:02;;;;;;;3.13;2.78;;;;;;;-1.21;90.79;102276.56;5028955;28;20475;-68
2022/04/03 03:26:27;;;;;;;6.15;2.95;;;;;;;-1.24;90.70;102269.56;5053470;28;20036;-68
2022/04/03 03:28:53;;;;;;;6.28;3.05;;;;;;;-1.25;90.75;102270.41;5018274;28;20656;-68
2022/04/03 03:31:19;;;;;;;4.78;2.90;;;;;;;-1.27;91.05;102272.09;5051258;28;20882;-69
2022/04/03 03:33:46;;;;;;;3.20;2.67;;;;;;;-1.27;91.08;102272.09;5051750;28;20037;-69
2022/04/03 03:36:11;;;;;;;3.70;2.90;;;;;;;-1.23;91.81;102273.97;5049992;28;20036;-68
2022/04/03 03:38:37;;;;;;;5.53;2.85;;;;;;;-1.20;91.91;102267.94;5051520;28;20033;-69
2022/04/03 03:41:03;;;;;;;7.63;3.10;;;;;;;-1.18;91.96;102268.88;5034634;28;20021;-68
2022/04/03 03:43:29;;;;;;;5.88;3.00;;;;;;;-1.17;91.79;102257.63;5014995;28;20561;-69
2022/04/03 03:45:55;;;;;;;5.18;2.65;;;;;;;-1.15;92.30;102262.88;5031283;28;20102;-68
2022/04/03 03:48:20;;;;;;;3.50;2.85;;;;;;;-1.15;91.99;102261.13;5050126;28;20032;-68
2022/04/03 03:50:46;;;;;;;5.00;2.70;;;;;;;-1.15;92.01;102262.88;5049863;28;20659;-68
2022/04/03 03:53:11;;;;;;;3.55;2.83;;;;;;;-1.14;92.28;102262.03;5032440;28;20036;-68
2022/04/03 03:55:37;;;;;;;6.00;2.83;;;;;;;-1.15;92.16;102262.88;5030036;28;20522;-68
2022/04/03 03:58:02;;;;;;;4.18;2.50;;;;;;;-1.15;92.00;102260.28;5049840;28;20341;-68
2022/04/03 04:00:28;;;;;;;5.60;2.63;;;;;;;-1.17;91.96;102254.13;5029582;28;20024;-68
2022/04/03 04:02:53;;;;;;;5.70;2.80;;;;;;;-1.17;92.30;102254.13;5032204;28;20048;-68
2022/04/03 04:05:19;;;;;;;6.78;2.72;;;;;;;-1.17;92.66;102254.13;5033127;28;20579;-68
2022/04/03 04:07:46;;;;;;;3.65;2.42;;;;;;;-1.16;92.59;102258.50;5031303;28;20696;-68
2022/04/03 04:10:14;;;;;;;5.15;2.65;;;;;;;-1.15;92.28;102258.53;5031568;28;20146;-68
2022/04/03 04:12:40;;;;;;;7.32;2.85;;;;;;;-1.14;92.93;102254.22;5049152;28;20323;-68
2022/04/03 04:15:07;;;;;;;7.47;3.58;;;;;;;-1.12;92.85;102255.16;5031763;28;20082;-68
2022/04/03 04:17:38;;;;;;;10.45;3.63;;;;;;;-1.11;92.51;102262.09;5048533;28;20112;-68
2022/04/03 04:20:15;;;;;;;9.80;4.05;;;;;;;-1.13;92.77;102259.44;5049487;28;20032;-69
2022/04/03 04:22:45;;;;;;;5.47;2.80;;;;;;;-1.14;92.62;102254.22;5048956;28;20106;-68
2022/04/03 04:25:12;;;;;;;4.47;2.40;;;;;;;-1.16;92.60;102250.69;5049051;28;20025;-68
2022/04/03 04:27:38;;;;;;;6.10;2.42;;;;;;;-1.18;92.64;102249.78;5048403;28;20059;-68
2022/04/03 04:30:04;;;;;;;4.35;2.20;;;;;;;-1.19;92.64;102248.03;5048851;28;20495;-69
2022/04/03 04:32:30;;;;;;;7.90;2.30;;;;;;;-1.20;93.08;102252.34;5048694;28;20499;-68
2022/04/03 04:34:56;;;;;;;2.97;2.00;;;;;;;-1.21;93.19;102249.72;5030525;28;20043;-69
2022/04/03 04:37:21;;;;;;;5.80;2.35;;;;;;;-1.21;93.55;102244.53;5030690;28;20155;-68
2022/04/03 04:39:47;;;;;;;5.80;2.40;;;;;;;-1.24;93.30;102246.19;5030818;28;20028;-69
2022/04/03 04:42:13;;;;;;;4.18;2.00;;;;;;;-1.27;93.36;102246.09;5014591;28;20036;-68
2022/04/03 04:44:39;;;;;;;3.95;1.90;;;;;;;-1.29;93.42;102246.91;5027049;28;20061;-68
2022/04/03 04:47:05;;;;;;;4.40;1.90;;;;;;;-1.28;93.66;102249.56;5027692;28;20099;-68
2022/04/03 04:49:31;;;;;;;4.68;2.28;;;;;;;-1.27;93.93;102253.91;5028953;28;20063;-68
2022/04/03 04:51:56;;;;;;;4.32;2.30;;;;;;;-1.26;93.98;102247.88;5028261;28;20031;-68
2022/04/03 04:54:22;;;;;;;5.38;2.10;;;;;;;-1.26;93.96;102249.56;5029009;28;20484;-68
2022/04/03 04:56:48;;;;;;;3.17;1.90;;;;;;;-1.27;94.41;102251.31;5028364;28;20048;-68
2022/04/03 04:59:13;;;;;;;6.15;1.98;;;;;;;-1.26;94.28;102253.06;5027339;28;20017;-68
2022/04/03 05:01:39;;;;;;;3.65;1.67;;;;;;;-1.26;94.33;102253.06;5028187;28;20040;-69
2022/04/03 05:04:06;;;;;;;3.70;1.98;;;;;;;-1.27;94.36;102253.91;5028199;28;20640;-69
2022/04/03 05:06:32;;;;;;;3.90;2.17;;;;;;;-1.27;94.39;102256.50;5027848;28;20108;-68
2022/04/03 05:08:58;;;;;;;4.55;1.88;;;;;;;-1.27;94.39;102266.91;4995600;28;20033;-68
2022/04/03 05:11:24;;;;;;;3.30;2.28;;;;;;;-1.24;94.71;102260.91;5028070;28;20106;-68
2022/04/03 05:13:50;;;;;;;3.92;1.80;;;;;;;-1.22;94.92;102264.41;5010746;28;20116;-68
2022/04/03 05:16:15;;;;;;;2.75;1.70;;;;;;;-1.20;95.00;102261.88;5026122;28;20029;-68
2022/04/03 05:18:41;;;;;;;5.30;1.55;;;;;;;-1.19;95.31;102263.63;5028701;28;20072;-69
2022/04/03 05:21:10;;;;;;;8.68;2.22;;;;;;;-1.17;95.08;102264.53;5028419;28;20412;-68
2022/04/03 05:23:38;;;;;;;5.38;1.60;;;;;;;-1.16;94.97;102258.50;5026739;28;20110;-69
2022/04/03 05:26:04;;;;;;;3.85;1.95;;;;;;;-1.15;95.07;102260.28;5026766;28;20094;-69
2022/04/03 05:28:30;;;;;;;7.53;2.22;;;;;;;-1.17;95.16;102249.84;5027075;28;20075;-68
2022/04/03 05:30:55;;;;;;;3.75;1.98;;;;;;;-1.13;95.35;102262.03;5026153;28;20135;-69
2022/04/03 05:33:21;;;;;;;2.95;1.73;;;;;;;-1.13;95.38;102253.38;5028620;28;20530;-69
2022/04/03 05:35:46;;;;;;;5.57;2.65;;;;;;;-1.13;95.32;102258.59;5027934;28;20045;-68
2022/04/03 05:38:12;;;;;;;5.60;2.20;;;;;;;-1.11;95.42;102264.69;5027525;28;20257;-68
2022/04/03 05:40:38;;;;;;;3.92;1.75;;;;;;;-1.08;95.63;102259.59;5027640;28;20472;-69
2022/04/03 05:43:03;;;;;;;6.38;2.20;;;;;;;-1.07;95.67;102258.75;5028477;28;20055;-69
2022/04/03 05:45:29;;;;;;;7.05;2.22;;;;;;;-1.05;95.68;102261.41;5046821;28;20061;-69
2022/04/03 05:47:55;;;;;;;6.10;2.17;;;;;;;-1.05;95.62;102262.25;5030358;28;20036;-69
2022/04/03 05:50:20;;;;;;;7.32;2.47;;;;;;;-1.05;95.41;102257.06;5030261;28;20731;-68
2022/04/03 05:52:48;;;;;;;9.52;2.50;;;;;;;-1.05;95.75;102264.00;5030699;28;21385;-68
2022/04/03 05:55:16;;;;;;;4.43;2.05;;;;;;;-1.05;95.60;102267.47;5013577;28;20032;-68
2022/04/03 05:57:42;;;;;;;4.10;2.13;;;;;;;-1.06;95.85;102265.69;5013388;28;20122;-69
2022/04/03 06:00:12;;;;;;;5.15;2.30;;;;;;;-1.04;96.03;102266.63;5030070;28;20049;-69
2022/04/03 06:03:01;;;;;;;6.43;2.38;;;;;;;-1.00;96.31;102276.25;5030183;28;20365;-69
2022/04/03 06:05:29;;;;;;;4.38;2.33;;;;;;;-0.94;96.31;102275.53;5022492;28;20039;-68
2022/04/03 06:07:55;;;;;;;4.30;2.30;;;;;;;-0.88;96.41;102274.81;5033689;28;20036;-68
2022/04/03 06:10:22;;;;;;;6.25;2.20;;;;;;;-0.80;96.45;102272.41;5047293;28;20076;-69
2022/04/03 06:12:58;;;;;;;2.63;2.20;;;;;;;-0.73;96.94;102269.09;5047661;28;20497;-68
2022/04/03 06:15:26;;;;;;;5.25;2.20;;;;;;;-0.63;97.14;102275.41;5047614;28;20067;-68
2022/04/03 06:17:52;;;;;;;7.57;1.85;;;;;;;-0.52;96.98;102270.47;5047576;28;20043;-68
2022/04/03 06:20:18;;;;;;;8.38;2.15;;;;;;;-0.43;96.96;102276.75;5048218;28;20263;-69
2022/04/03 06:22:44;;;;;;;5.97;2.15;;;;;;;-0.32;97.10;102278.75;5029647;28;20191;-69
2022/04/03 06:25:09;;;;;;;3.00;2.08;;;;;;;-0.21;97.00;102274.66;5030601;28;20450;-69
2022/04/03 06:27:35;;;;;;;5.95;2.30;;;;;;;-0.11;96.95;102282.69;5026021;28;20044;-69
2022/04/03 06:30:01;;;;;;;4.75;2.63;;;;;;;-0.01;97.13;102279.41;5029326;28;20025;-68
2022/04/03 06:32:26;;;;;;;3.75;2.17;;;;;;;0.11;97.41;102279.69;5047972;28;20528;-68
2022/04/03 06:34:52;;;;;;;3.08;1.80;;;;;;;0.24;97.93;102292.97;5029442;28;20496;-68
2022/04/03 06:37:18;;;;;;;5.03;2.03;;;;;;;0.35;98.32;102281.06;5034420;28;20158;-69
2022/04/03 06:39:43;;;;;;;3.20;1.85;;;;;;;0.46;98.33;102281.28;5053832;28;20028;-68
2022/04/03 06:42:09;;;;;;;2.90;2.03;;;;;;;0.56;98.63;102284.03;5053399;28;20863;-68
2022/04/03 06:44:35;;;;;;;2.67;1.90;;;;;;;0.66;98.51;102286.84;5052673;28;20400;-68
2022/04/03 06:47:00;;;;;;;3.15;1.60;;;;;;;0.79;98.96;102281.88;5053378;28;20429;-68
2022/04/03 06:49:29;;;;;;;2.13;1.70;;;;;;;0.92;98.84;102281.25;5035407;28;20473;-68
2022/04/03 06:51:54;;;;;;;7.55;2.92;;;;;;;1.08;99.15;102294.56;5054392;28;21433;-68
2022/04/03 06:54:20;;;;;;;3.30;1.92;;;;;;;1.21;99.14;102291.31;5054233;28;20041;-68
2022/04/03 06:56:45;;;;;;;2.20;1.80;;;;;;;1.34;99.68;102291.50;5034910;28;20043;-68
2022/04/03 06:59:10;;;;;;;4.75;1.90;;;;;;;1.52;99.39;102295.28;5053162;28;20028;-68
2022/04/03 07:01:36;;;;;;;2.67;1.70;;;;;;;1.69;99.74;102288.56;5034471;28;20036;-68
2022/04/03 07:04:02;;;;;;;4.88;1.73;;;;;;;1.92;100.00;102290.66;5036074;28;20147;-68
2022/04/03 07:06:28;;;;;;;4.65;1.60;;;;;;;2.16;99.95;102295.31;5052461;28;20040;-69
2022/04/03 07:08:53;;;;;;;2.95;1.73;;;;;;;2.43;99.91;102287.78;5035060;28;20094;-68
2022/04/03 07:11:19;;;;;;;3.97;1.70;;;;;;;2.68;100.00;102299.41;5054253;28;20561;-68
2022/04/03 07:13:45;;;;;;;4.93;1.50;;;;;;;2.88;100.00;102305.72;5055736;28;20035;-68
2022/04/03 07:16:10;;;;;;;4.88;1.58;;;;;;;3.01;99.61;102307.59;5053147;28;20476;-69
2022/04/03 07:18:36;;;;;;;7.32;1.50;;;;;;;3.11;99.14;102311.19;5037197;28;20218;-69
2022/04/03 07:21:02;;;;;;;3.10;1.40;;;;;;;3.20;99.11;102307.75;5055220;28;20044;-69
2022/04/03 07:23:28;;;;;;;6.90;3.28;;;;;;;3.28;99.03;102308.72;5037228;28;20043;-70
2022/04/03 07:25:53;;;;;;;5.00;4.53;;;;;;;3.43;99.50;102300.09;5035500;28;20115;-70
2022/04/03 07:28:19;;;;;;;9.20;6.05;;;;;;;3.59;99.58;102298.47;5053431;28;20731;-69
2022/04/03 07:30:45;;;;;;;84.15;8.75;;;;;;;3.80;99.93;102302.09;5052433;28;20617;-70
2022/04/03 07:33:10;;;;;;;4.95;2.95;;;;;;;3.97;99.50;102310.06;5052313;28;20479;-70
2022/04/03 07:35:37;;;;;;;3.90;1.60;;;;;;;4.04;98.53;102297.88;5024063;28;20029;-70
2022/04/03 07:38:02;;;;;;;6.65;1.50;;;;;;;4.01;97.07;102313.56;5035896;28;20563;-68
2022/04/03 07:40:28;;;;;;;2.78;1.10;;;;;;;3.98;96.44;102308.34;5038595;28;20507;-69
2022/04/03 07:42:54;;;;;;;1.83;1.00;;;;;;;3.92;96.49;102311.81;5033686;28;20544;-69
2022/04/03 07:45:19;;;;;;;2.78;1.60;;;;;;;3.87;95.89;102305.66;5034753;28;20044;-69
2022/04/03 07:47:49;;;;;;;4.30;2.00;;;;;;;3.85;96.39;102303.00;5051944;28;20099;-69
2022/04/03 07:50:19;;;;;;;5.85;2.58;;;;;;;3.85;96.52;102308.25;5052149;28;20040;-69
2022/04/03 07:52:46;;;;;;;5.45;2.15;;;;;;;3.84;96.98;102311.75;5051887;28;20033;-69
2022/04/03 07:55:12;;;;;;;5.88;3.28;;;;;;;3.80;96.85;102307.34;5033354;28;20183;-69
2022/04/03 07:57:39;;;;;;;4.68;2.30;;;;;;;3.78;96.35;102312.59;5050472;28;20037;-69
2022/04/03 08:00:06;;;;;;;4.43;1.60;;;;;;;3.74;95.71;102317.78;5052072;28;20495;-69
2022/04/03 08:02:34;;;;;;;3.70;1.60;;;;;;;3.78;96.22;102319.56;5034519;28;20455;-69
2022/04/03 08:04:59;;;;;;;4.07;1.20;;;;;;;3.81;95.19;102311.72;5051973;28;20052;-69
2022/04/03 08:07:43;;;;;;;4.03;1.70;;;;;;;3.89;95.39;102311.78;5051219;28;20116;-69
2022/04/03 08:10:09;;;;;;;6.00;4.35;;;;;;;3.94;95.03;102308.28;5051387;28;20040;-69
2022/04/03 08:12:35;;;;;;;2.10;1.90;;;;;;;4.03;95.02;102314.47;5033270;28;20029;-69
2022/04/03 08:15:02;;;;;;;2.28;1.50;;;;;;;4.13;95.00;102307.53;5014410;28;20686;-68
2022/04/03 08:17:28;;;;;;;2.05;1.42;;;;;;;4.19;93.59;102305.81;5032603;28;20093;-68
2022/04/03 08:19:53;;;;;;;1.10;0.90;;;;;;;4.25;92.81;102306.72;5051843;28;20028;-69
2022/04/03 08:22:19;;;;;;;2.38;0.88;;;;;;;4.27;91.38;102304.97;5031179;28;20202;-68
2022/04/03 08:24:45;;;;;;;3.33;0.98;;;;;;;4.33;90.60;102299.75;5050964;28;20162;-68
2022/04/03 08:27:12;;;;;;;3.95;1.42;;;;;;;4.45;90.90;102302.44;5030781;28;20040;-69
2022/04/03 08:29:38;;;;;;;1.70;1.02;;;;;;;4.60;90.44;102298.09;5051799;28;20046;-69
2022/04/03 08:32:03;;;;;;;3.95;1.30;;;;;;;4.71;89.39;102295.50;5051746;28;20033;-69
2022/04/03 08:34:29;;;;;;;3.15;1.23;;;;;;;4.80;89.61;102299.91;5051484;28;20498;-68
2022/04/03 08:36:54;;;;;;;3.50;1.25;;;;;;;4.89;88.99;102305.16;5032607;28;20095;-69
2022/04/03 08:39:20;;;;;;;3.72;1.70;;;;;;;4.93;88.13;102306.03;5052072;28;20036;-69
2022/04/03 08:41:46;;;;;;;4.00;1.65;;;;;;;4.98;89.08;102299.94;5050675;28;20358;-69
2022/04/03 08:44:12;;;;;;;4.18;1.60;;;;;;;5.07;88.43;102298.19;5050463;28;20155;-69
2022/04/03 08:46:41;;;;;;;2.53;1.70;;;;;;;5.17;88.20;102305.19;5047588;28;20083;-69
2022/04/03 08:49:07;;;;;;;3.17;1.30;;;;;;;5.21;88.35;102301.69;5032166;28;20533;-69
2022/04/03 08:51:36;;;;;;;4.95;1.60;;;;;;;5.22;88.28;102311.31;5050901;28;20093;-69
2022/04/03 08:54:03;;;;;;;3.13;1.30;;;;;;;5.20;87.90;102304.31;5049714;28;20085;-69
2022/04/03 08:56:29;;;;;;;2.78;1.20;;;;;;;5.15;87.86;102302.59;5032789;28;20368;-69
2022/04/03 08:58:55;;;;;;;4.35;1.70;;;;;;;5.15;87.09;102296.44;5049636;28;20743;-69
2022/04/03 09:01:20;;;;;;;2.53;1.35;;;;;;;5.21;87.41;102298.19;5050272;28;20044;-69
2022/04/03 09:03:46;;;;;;;2.10;1.38;;;;;;;5.33;87.69;102297.34;5050427;28;20075;-69
2022/04/03 09:06:15;;;;;;;2.05;1.38;;;;;;;5.46;87.48;102301.72;5050459;28;20064;-69
2022/04/03 09:08:41;;;;;;;2.17;1.27;;;;;;;5.69;87.39;102299.06;5033040;28;20036;-69
2022/04/03 09:11:07;;;;;;;2.60;1.20;;;;;;;5.83;86.35;102295.53;5050282;28;20492;-69
2022/04/03 09:13:37;;;;;;;3.92;2.05;;;;;;;5.90;87.00;102299.00;5048151;28;20062;-68
2022/04/03 09:16:04;;;;;;;2.08;1.48;;;;;;;5.88;85.71;102303.41;5048865;28;20032;-68
2022/04/03 09:18:50;;;;;;;1.92;1.50;;;;;;;5.73;84.36;102292.03;5049963;28;20566;-69
2022/04/03 09:21:20;;;;;;;1.73;1.27;;;;;;;5.62;83.67;102301.69;5050170;28;20040;-69
2022/04/03 09:24:02;;;;;;;5.05;1.70;;;;;;;5.55;83.12;102291.19;5050642;28;20036;-69
2022/04/03 09:26:28;;;;;;;4.88;1.92;;;;;;;5.63;83.69;102287.66;5050068;28;20032;-69
2022/04/03 09:29:17;;;;;;;5.07;3.42;;;;;;;5.78;83.64;102294.66;5049843;28;20284;-69
2022/04/03 09:31:45;;;;;;;2.80;2.30;;;;;;;5.86;83.94;102295.50;5049414;28;20336;-70
2022/04/03 09:34:18;;;;;;;4.72;1.63;;;;;;;5.97;83.05;102291.09;5048938;28;20556;-69
2022/04/03 09:36:54;;;;;;;3.50;1.55;;;;;;;6.15;82.63;102297.19;5032502;28;20025;-69
2022/04/03 09:39:24;;;;;;;7.35;1.80;;;;;;;6.28;82.42;102298.03;5031037;28;20036;-68
2022/04/03 09:41:57;;;;;;;3.90;1.40;;;;;;;6.30;81.50;102296.28;5030409;28;20087;-68
2022/04/03 09:44:35;;;;;;;5.30;1.38;;;;;;;6.33;80.25;102290.13;5049155;28;20153;-68
2022/04/03 09:47:26;;;;;;;2.50;1.73;;;;;;;6.32;79.26;102298.91;5029309;28;20040;-69
2022/04/03 09:49:54;;;;;;;4.22;1.30;;;;;;;6.29;79.47;102291.00;5049824;28;20380;-69
2022/04/03 09:52:40;;;;;;;3.17;1.20;;;;;;;6.27;78.16;102280.53;5031073;28;20040;-69
2022/04/03 09:55:20;;;;;;;3.88;1.50;;;;;;;6.25;78.13;102292.78;5045256;28;20422;-69
2022/04/03 09:58:03;;;;;;;6.60;1.50;;;;;;;6.21;78.82;102281.41;5030334;28;20059;-69
2022/04/03 10:00:41;;;;;;;2.15;1.10;;;;;;;6.21;78.54;102280.53;5031222;28;20056;-69
2022/04/03 10:03:09;;;;;;;4.13;1.30;;;;;;;6.16;78.23;102277.06;5031319;28;20037;-69
2022/04/03 10:05:36;;;;;;;3.30;1.00;;;;;;;6.10;77.44;102281.44;5049299;28;21655;-69
2022/04/03 10:08:04;;;;;;;4.13;1.42;;;;;;;6.04;76.94;102273.56;5018620;28;20041;-69
2022/04/03 10:10:31;;;;;;;2.90;1.08;;;;;;;6.06;77.91;102271.81;5033168;28;20040;-69
2022/04/03 10:12:58;;;;;;;3.58;1.10;;;;;;;6.14;77.49;102268.31;5003566;28;20514;-69
2022/04/03 10:15:25;;;;;;;2.83;1.20;;;;;;;6.30;77.78;102263.81;5034165;28;20467;-69
2022/04/03 10:17:51;;;;;;;2.88;1.10;;;;;;;6.48;77.53;102274.25;5034347;28;20043;-69
2022/04/03 10:20:17;;;;;;;2.90;1.08;;;;;;;6.61;76.77;102267.19;5053267;28;20024;-69
2022/04/03 10:22:46;;;;;;;2.92;1.50;;;;;;;6.62;76.00;102268.03;5020256;28;20036;-69
2022/04/03 10:25:15;;;;;;;2.58;1.52;;;;;;;6.56;76.18;102270.72;5035802;28;20533;-69
2022/04/03 10:27:43;;;;;;;2.83;1.60;;;;;;;6.55;76.02;102269.84;5019604;28;20093;-69
2022/04/03 10:30:10;;;;;;;5.80;1.10;;;;;;;6.54;76.34;102262.81;5035897;28;20090;-69
2022/04/03 10:32:36;;;;;;;3.05;1.30;;;;;;;6.62;75.99;102261.03;5018750;28;20016;-69
2022/04/03 10:35:06;;;;;;;4.50;1.80;;;;;;;6.77;76.77;102261.81;5019603;28;20115;-69
2022/04/03 10:37:37;;;;;;;3.13;1.52;;;;;;;6.83;76.43;102259.16;5034485;28;20097;-69
2022/04/03 10:40:07;;;;;;;3.75;1.20;;;;;;;6.87;76.07;102260.00;5054314;28;20093;-69
2022/04/03 10:42:33;;;;;;;4.57;1.30;;;;;;;6.88;75.21;102267.00;5053325;28;20127;-69
2022/04/03 10:45:11;;;;;;;2.30;1.00;;;;;;;6.90;74.98;102266.13;5033800;28;20044;-69
2022/04/03 10:47:37;;;;;;;4.35;1.23;;;;;;;6.94;75.52;102256.44;5021131;28;20454;-69
2022/04/03 10:50:04;;;;;;;3.20;1.20;;;;;;;6.98;74.95;102262.56;5034669;28;20043;-68
2022/04/03 10:52:39;;;;;;;1.80;1.15;;;;;;;6.90;74.03;102255.59;5052532;28;20034;-69
2022/04/03 10:55:23;;;;;;;3.88;1.17;;;;;;;6.76;72.96;102253.03;5052009;28;20040;-69
2022/04/03 10:58:15;;;;;;;4.80;1.20;;;;;;;6.66;73.69;102246.97;5034800;28;20036;-69
2022/04/03 11:00:41;;;;;;;1.10;1.00;;;;;;;6.68;73.76;102253.97;5047599;28;20703;-69
2022/04/03 11:03:19;;;;;;;1.85;0.90;;;;;;;6.81;72.07;102249.50;5034788;28;20036;-70
2022/04/03 11:05:46;;;;;;;4.13;1.08;;;;;;;6.90;72.09;102244.16;5051785;28;20036;-69
2022/04/03 11:08:12;;;;;;;1.75;1.00;;;;;;;6.95;71.61;102242.38;5052319;28;20032;-69
2022/04/03 11:10:56;;;;;;;5.65;1.00;;;;;;;6.99;70.53;102238.84;5052291;28;20391;-69
2022/04/03 11:13:23;;;;;;;5.07;1.15;;;;;;;6.97;71.50;102235.34;5035347;28;20750;-69
2022/04/03 11:15:48;;;;;;;1.75;0.90;;;;;;;7.01;71.54;102238.81;5052748;28;20086;-69
2022/04/03 11:18:32;;;;;;;2.90;1.17;;;;;;;6.99;70.30;102228.31;5052470;28;20044;-69
2022/04/03 11:21:10;;;;;;;1.63;1.25;;;;;;;7.06;70.02;102223.84;5053485;28;20115;-69
2022/04/03 11:23:45;;;;;;;2.28;0.90;;;;;;;7.18;71.14;102223.75;5051683;28;20892;-69
2022/04/03 11:26:12;;;;;;;1.27;1.05;;;;;;;7.17;70.26;102231.66;5021356;28;20514;-69
2022/04/03 11:28:39;;;;;;;1.20;1.10;;;;;;;7.09;69.54;102231.75;5001489;28;20048;-69
2022/04/03 11:31:05;;;;;;;2.17;1.23;;;;;;;7.02;70.30;102224.75;5034615;28;20028;-68